Time;durP1;ratioP1;P1;durP2;ratioP2;P2;SDS_P1;SDS_P2;PMS_P1;PMS_P2;Temp;Humidity;BMP_temperature;BMP_pressure;BME280_temperature;BME280_humidity;BME280_pressure;Samples;Min_cycle;Max_cycle;Signal;HPM_P1;HPM_P2
2022/02/06 00:00:44;;;;;;;4.10;1.63;;;2.40;99.90;;;;;;4993778;28;20175;-74
2022/02/06 00:03:11;;;;;;;2.80;1.50;;;2.40;99.90;;;;;;4994999;28;20507;-73
2022/02/06 00:05:37;;;;;;;4.53;2.00;;;2.40;99.90;;;;;;4995185;28;20935;-73
2022/02/06 00:08:08;;;;;;;5.43;1.57;;;2.40;99.90;;;;;;4995072;28;20830;-73
2022/02/06 00:10:33;;;;;;;6.60;1.63;;;2.30;99.90;;;;;;4994929;28;20951;-70
2022/02/06 00:12:59;;;;;;;2.87;1.33;;;2.40;99.90;;;;;;4994844;28;20408;-73
2022/02/06 00:15:24;;;;;;;2.10;1.30;;;2.40;99.90;;;;;;4994962;28;20175;-73
2022/02/06 00:17:50;;;;;;;3.70;1.20;;;2.40;99.90;;;;;;4994726;28;20176;-73
2022/02/06 00:20:16;;;;;;;5.70;2.30;;;2.40;99.90;;;;;;4994735;28;20213;-73
2022/02/06 00:22:46;;;;;;;3.13;1.23;;;2.30;99.90;;;;;;4994607;28;20198;-73
2022/02/06 00:25:32;;;;;;;3.93;1.23;;;2.30;99.90;;;;;;4994756;28;20441;-73
2022/02/06 00:28:19;;;;;;;2.50;1.23;;;2.50;99.90;;;;;;4994771;28;20402;-74
2022/02/06 00:35:58;;;;;;;4.60;1.50;;;2.60;99.90;;;;;;4994531;28;20411;-73
2022/02/06 00:38:35;;;;;;;2.50;1.43;;;2.70;99.90;;;;;;4994508;28;20422;-73
2022/02/06 00:43:28;;;;;;;8.80;1.63;;;2.60;99.90;;;;;;4994308;28;20827;-73
2022/02/06 00:45:54;;;;;;;1.87;1.03;;;2.70;99.90;;;;;;4993365;28;20415;-73
2022/02/06 00:48:28;;;;;;;4.57;1.57;;;2.70;99.90;;;;;;4994418;28;20205;-73
2022/02/06 00:51:08;;;;;;;8.27;1.67;;;2.70;99.90;;;;;;4994022;28;20987;-73
2022/02/06 00:53:33;;;;;;;5.20;1.10;;;2.80;99.90;;;;;;4994193;28;20386;-73
2022/02/06 00:55:59;;;;;;;2.87;1.30;;;2.80;99.90;;;;;;4994376;28;20422;-73
2022/02/06 00:58:25;;;;;;;2.10;1.03;;;2.90;99.90;;;;;;4994327;28;20253;-73
2022/02/06 05:34:15;;;;;;;3.20;1.20;;;4.70;99.90;;;;;;4991994;28;20386;-75
2022/02/06 05:36:41;;;;;;;1.00;0.80;;;4.70;99.90;;;;;;4993942;28;20180;-75
2022/02/06 05:39:06;;;;;;;3.97;0.83;;;4.70;99.90;;;;;;4993774;28;20208;-73
2022/02/06 05:41:32;;;;;;;1.60;1.10;;;4.60;99.90;;;;;;4990156;28;20201;-75
2022/02/06 05:43:57;;;;;;;5.80;0.87;;;4.60;99.90;;;;;;4986730;28;20227;-75
2022/02/06 05:46:23;;;;;;;5.17;1.00;;;4.50;99.90;;;;;;4993626;28;20196;-75
2022/02/06 05:48:48;;;;;;;3.80;1.10;;;4.50;99.90;;;;;;4993632;28;20173;-75
2022/02/06 05:51:14;;;;;;;8.30;1.20;;;4.60;99.90;;;;;;4993550;28;20193;-75
2022/02/06 05:53:41;;;;;;;3.80;0.80;;;4.60;99.90;;;;;;4993415;28;20258;-75
2022/02/06 05:56:06;;;;;;;7.70;1.23;;;4.70;99.90;;;;;;4994155;28;20813;-75
2022/02/06 05:58:32;;;;;;;8.30;1.27;;;4.80;99.90;;;;;;4993165;28;20511;-75
2022/02/06 06:00:58;;;;;;;6.37;0.80;;;4.80;99.90;;;;;;4992636;28;20240;-75
2022/02/06 06:03:23;;;;;;;0.87;0.73;;;4.80;99.90;;;;;;4992337;28;20173;-75
2022/02/06 06:05:49;;;;;;;4.87;1.10;;;4.90;99.90;;;;;;4992885;28;20179;-74
2022/02/06 06:08:15;;;;;;;1.70;0.80;;;4.90;99.90;;;;;;4992711;28;20543;-74
2022/02/06 06:10:40;;;;;;;8.67;1.17;;;4.80;99.90;;;;;;4992588;28;20181;-74
2022/02/06 06:13:06;;;;;;;2.13;1.03;;;4.90;99.90;;;;;;4992577;28;20237;-75
2022/02/06 06:15:31;;;;;;;3.30;1.57;;;4.90;99.90;;;;;;4992453;28;20172;-75
2022/02/06 06:18:02;;;;;;;7.50;1.20;;;4.90;99.90;;;;;;4993112;28;20220;-75
2022/02/06 06:20:29;;;;;;;2.50;0.97;;;5.00;99.90;;;;;;4992181;28;20324;-73
2022/02/06 06:22:55;;;;;;;5.93;0.87;;;4.90;99.90;;;;;;4992479;28;20869;-74
2022/02/06 06:25:21;;;;;;;6.00;1.40;;;4.90;99.90;;;;;;4992273;28;20451;-74
2022/02/06 06:27:46;;;;;;;2.80;1.03;;;4.90;99.90;;;;;;4992693;28;20209;-74
2022/02/06 06:30:12;;;;;;;5.27;1.53;;;4.90;99.90;;;;;;4992108;28;20416;-74
2022/02/06 06:32:39;;;;;;;4.77;0.80;;;4.90;99.90;;;;;;4992338;28;20223;-74
2022/02/06 06:35:06;;;;;;;5.70;1.00;;;4.90;99.90;;;;;;4992159;28;20755;-74
2022/02/06 06:37:32;;;;;;;1.90;0.77;;;4.90;99.90;;;;;;4991710;28;20487;-72
2022/02/06 06:39:57;;;;;;;1.80;1.00;;;5.00;99.90;;;;;;4991922;28;20460;-72
2022/02/06 06:42:23;;;;;;;6.27;1.40;;;5.00;99.90;;;;;;4992093;28;20195;-72
2022/02/06 06:44:48;;;;;;;4.37;1.10;;;5.10;99.90;;;;;;4991196;28;20185;-73
2022/02/06 06:47:14;;;;;;;1.23;1.13;;;5.10;99.90;;;;;;4992712;28;20184;-73
2022/02/06 06:49:40;;;;;;;3.93;1.00;;;5.10;99.90;;;;;;4991952;28;20529;-72
2022/02/06 06:52:07;;;;;;;1.70;0.60;;;5.10;99.90;;;;;;4992025;28;20692;-72
2022/02/06 06:54:37;;;;;;;3.17;1.37;;;5.10;99.90;;;;;;4991618;28;20391;-72
2022/02/06 07:05:05;;;;;;;4.60;1.27;;;5.20;99.90;;;;;;4931524;29;20413;-73
2022/02/06 07:07:32;;;;;;;4.23;1.40;;;5.20;99.90;;;;;;4979296;28;20423;-72
2022/02/06 07:09:58;;;;;;;2.07;0.90;;;5.20;99.90;;;;;;4991876;28;20776;-72
2022/02/06 07:12:23;;;;;;;4.30;0.97;;;5.20;99.90;;;;;;4991924;28;20490;-73
2022/02/06 07:14:50;;;;;;;2.67;1.10;;;5.20;99.90;;;;;;4991765;28;20671;-71
2022/02/06 07:17:17;;;;;;;5.07;0.87;;;5.30;99.90;;;;;;4991943;28;20197;-72
2022/02/06 07:19:43;;;;;;;2.70;0.93;;;5.30;99.90;;;;;;4991608;28;20503;-72
2022/02/06 07:22:13;;;;;;;3.03;1.00;;;5.30;99.90;;;;;;4991758;28;20810;-72
2022/02/06 07:24:40;;;;;;;8.47;1.53;;;5.40;99.90;;;;;;4991464;28;20417;-72
2022/02/06 07:27:20;;;;;;;3.70;0.80;;;5.40;99.90;;;;;;4991945;28;20409;-72
2022/02/06 07:29:46;;;;;;;3.70;1.27;;;5.40;99.90;;;;;;4991530;28;20434;-71
2022/02/06 07:32:11;;;;;;;9.43;1.23;;;5.50;99.90;;;;;;4991628;28;20519;-72
2022/02/06 07:34:37;;;;;;;4.50;2.27;;;5.40;99.90;;;;;;4991336;28;20426;-72
2022/02/06 07:37:03;;;;;;;2.20;0.80;;;5.50;99.90;;;;;;4991661;28;20236;-72
2022/02/06 07:39:29;;;;;;;3.00;1.30;;;5.50;99.90;;;;;;4991612;28;20463;-73
2022/02/06 07:41:54;;;;;;;3.03;1.13;;;5.50;99.90;;;;;;4991357;28;20201;-72
2022/02/06 07:44:20;;;;;;;6.40;1.33;;;5.50;99.90;;;;;;4991411;28;20181;-73
2022/02/06 07:46:48;;;;;;;2.10;0.90;;;5.50;99.90;;;;;;4991455;28;20265;-73
2022/02/06 07:49:15;;;;;;;2.07;0.90;;;5.50;99.90;;;;;;4991533;28;20205;-73
2022/02/06 07:51:41;;;;;;;10.43;1.23;;;5.50;99.90;;;;;;4991257;28;20800;-72
2022/02/06 07:54:07;;;;;;;3.10;1.20;;;5.60;99.90;;;;;;4991313;28;20428;-72
2022/02/06 07:56:33;;;;;;;8.17;1.10;;;5.60;99.90;;;;;;4995069;28;20412;-73
2022/02/06 07:58:59;;;;;;;5.23;1.67;;;5.60;99.90;;;;;;4995147;28;20456;-70
2022/02/06 08:01:25;;;;;;;2.10;1.30;;;5.60;99.90;;;;;;4995015;28;20440;-72
2022/02/06 08:03:51;;;;;;;9.23;1.20;;;5.60;99.90;;;;;;4994700;28;20208;-73
2022/02/06 08:06:16;;;;;;;5.70;1.07;;;5.70;99.90;;;;;;4995191;28;20919;-73
2022/02/06 08:08:42;;;;;;;1.43;1.00;;;5.70;99.90;;;;;;4994780;28;20669;-72
2022/02/06 08:11:12;;;;;;;4.40;1.10;;;5.80;99.90;;;;;;4994823;28;20224;-72
2022/02/06 08:13:52;;;;;;;2.67;0.83;;;5.80;99.90;;;;;;4994610;28;20420;-72
2022/02/06 08:16:17;;;;;;;4.47;1.27;;;5.90;99.90;;;;;;4994980;28;20419;-72
2022/02/06 08:18:43;;;;;;;4.90;1.50;;;5.90;99.90;;;;;;4994547;28;20463;-72
2022/02/06 08:21:10;;;;;;;5.23;2.93;;;6.00;99.90;;;;;;4994624;28;20606;-72
2022/02/06 08:23:35;;;;;;;6.73;1.33;;;6.00;99.90;;;;;;4994483;28;20202;-72
2022/02/06 08:26:02;;;;;;;4.83;0.87;;;6.00;99.90;;;;;;4994678;28;20513;-72
2022/02/06 08:28:28;;;;;;;5.53;0.90;;;6.00;99.90;;;;;;4994667;28;20175;-73
2022/02/06 08:30:53;;;;;;;3.67;1.50;;;6.00;99.90;;;;;;4994118;28;20460;-72
2022/02/06 08:33:19;;;;;;;5.40;0.90;;;6.10;99.90;;;;;;4994599;28;20182;-72
2022/02/06 08:35:47;;;;;;;7.27;1.30;;;6.10;99.90;;;;;;4994291;28;20179;-73
2022/02/06 08:38:13;;;;;;;3.83;0.90;;;6.20;99.90;;;;;;4994547;28;20220;-72
2022/02/06 08:40:39;;;;;;;6.53;1.10;;;6.20;99.90;;;;;;4994075;28;20454;-73
2022/02/06 08:43:05;;;;;;;9.30;1.33;;;6.20;99.90;;;;;;4994270;28;20174;-72
2022/02/06 08:45:33;;;;;;;1.57;1.17;;;6.30;99.90;;;;;;4994247;28;20414;-73
2022/02/06 08:47:58;;;;;;;7.53;1.00;;;6.50;99.90;;;;;;4994302;28;20422;-73
2022/02/06 08:50:24;;;;;;;2.87;1.10;;;6.60;99.90;;;;;;4994047;28;20420;-72
2022/02/06 08:52:50;;;;;;;1.10;0.80;;;6.70;99.90;;;;;;4993834;28;20575;-72
2022/02/06 08:55:17;;;;;;;3.80;1.10;;;6.70;99.90;;;;;;4994215;28;20243;-73
2022/02/06 08:57:47;;;;;;;6.50;1.20;;;6.80;99.90;;;;;;4993899;28;20930;-72
2022/02/06 09:00:14;;;;;;;1.17;0.87;;;6.80;99.90;;;;;;4993864;28;20457;-72
2022/02/06 09:02:40;;;;;;;2.33;0.87;;;6.90;99.90;;;;;;4993794;28;20438;-72
2022/02/06 09:05:06;;;;;;;2.53;1.03;;;6.80;99.90;;;;;;4993873;28;20799;-72
2022/02/06 09:07:31;;;;;;;5.80;1.20;;;6.90;99.90;;;;;;4993254;28;20179;-72
2022/02/06 09:10:00;;;;;;;3.23;0.90;;;6.80;99.90;;;;;;4993584;28;20178;-73
2022/02/06 09:12:27;;;;;;;2.50;1.20;;;6.90;99.90;;;;;;4993704;28;20669;-72
2022/02/06 09:14:53;;;;;;;5.27;1.27;;;6.80;99.90;;;;;;4993497;28;20446;-72
2022/02/06 09:17:19;;;;;;;8.97;1.20;;;6.80;99.90;;;;;;4993761;28;20426;-72
2022/02/06 09:19:46;;;;;;;5.90;1.10;;;6.70;99.90;;;;;;4993452;28;20458;-72
2022/02/06 09:22:14;;;;;;;5.23;1.20;;;6.70;99.90;;;;;;4993634;28;20815;-72
2022/02/06 09:24:41;;;;;;;3.33;1.00;;;6.70;99.90;;;;;;4993024;28;20840;-72
2022/02/06 09:27:07;;;;;;;6.63;1.63;;;6.70;99.90;;;;;;4993551;28;20446;-73
2022/02/06 09:29:34;;;;;;;2.50;0.80;;;6.70;99.90;;;;;;4993348;28;20497;-73
2022/02/06 09:37:02;;;;;;;7.20;0.70;;;6.60;99.90;;;;;;4993378;28;20426;-73
2022/02/06 09:39:32;;;;;;;3.23;1.17;;;6.60;99.90;;;;;;4993191;28;20828;-73
2022/02/06 09:41:58;;;;;;;3.00;1.00;;;6.70;99.90;;;;;;4993117;28;20431;-73
2022/02/06 09:44:28;;;;;;;1.00;0.70;;;6.70;99.90;;;;;;4993863;28;20758;-73
2022/02/06 09:46:55;;;;;;;7.80;1.50;;;6.80;99.90;;;;;;4993214;28;20178;-72
2022/02/06 09:49:22;;;;;;;10.77;1.83;;;6.70;99.90;;;;;;4993618;28;20423;-73
2022/02/06 09:51:49;;;;;;;7.50;1.33;;;6.80;99.90;;;;;;4992851;28;20431;-72
2022/02/06 09:54:15;;;;;;;4.40;1.90;;;6.80;99.90;;;;;;4992888;28;20419;-72
2022/02/06 09:56:48;;;;;;;4.57;1.03;;;6.90;99.90;;;;;;4992843;28;20941;-72
2022/02/06 09:59:21;;;;;;;5.63;2.20;;;6.90;99.90;;;;;;4992758;28;20585;-72
2022/02/06 10:01:54;;;;;;;10.87;4.43;;;7.00;99.90;;;;;;4992702;28;20441;-72
2022/02/06 10:04:26;;;;;;;6.63;2.00;;;7.10;99.90;;;;;;4992730;28;20489;-73
2022/02/06 10:07:08;;;;;;;14.10;2.27;;;7.10;99.90;;;;;;4992925;28;20438;-72
2022/02/06 10:09:45;;;;;;;4.80;1.80;;;7.30;99.90;;;;;;4992772;28;20423;-72
2022/02/06 10:12:14;;;;;;;4.53;2.23;;;7.50;99.90;;;;;;4992705;28;20446;-72
2022/02/06 10:14:40;;;;;;;6.47;3.30;;;7.50;99.90;;;;;;4992393;28;20517;-72
2022/02/06 10:17:06;;;;;;;11.47;3.20;;;7.50;99.90;;;;;;4992641;28;20426;-72
2022/02/06 10:19:32;;;;;;;7.73;2.80;;;7.60;99.90;;;;;;4992558;28;20461;-72
2022/02/06 10:21:59;;;;;;;6.40;2.30;;;7.50;99.90;;;;;;4992205;28;20808;-73
2022/02/06 10:24:29;;;;;;;2.90;1.60;;;7.50;99.90;;;;;;4992502;28;20421;-73
2022/02/06 10:29:51;;;;;;;9.20;2.07;;;7.50;99.90;;;;;;4992472;28;20463;-73
2022/02/06 10:32:18;;;;;;;2.30;1.13;;;7.50;99.90;;;;;;4992311;28;20963;-72
2022/02/06 10:34:44;;;;;;;3.40;1.47;;;7.50;99.90;;;;;;4991888;28;20935;-73
2022/02/06 10:37:21;;;;;;;5.13;1.50;;;7.60;99.90;;;;;;4992503;28;20408;-73
2022/02/06 10:40:02;;;;;;;5.00;0.90;;;7.60;99.90;;;;;;4991944;28;20621;-73
2022/02/06 10:42:31;;;;;;;4.83;1.20;;;7.60;99.90;;;;;;4992273;28;20430;-72
2022/02/06 10:45:17;;;;;;;2.50;1.17;;;7.70;99.90;;;;;;4991733;28;20416;-73
2022/02/06 10:47:45;;;;;;;4.90;1.53;;;7.70;99.90;;;;;;4992100;28;20409;-73
2022/02/06 10:50:14;;;;;;;3.17;1.60;;;7.70;99.90;;;;;;4991897;28;20432;-73
2022/02/06 10:52:40;;;;;;;3.60;1.00;;;7.80;99.90;;;;;;4991887;28;20792;-73
2022/02/06 10:55:06;;;;;;;2.53;1.40;;;7.90;99.90;;;;;;4991884;28;20412;-72
2022/02/06 10:57:33;;;;;;;2.50;1.37;;;8.20;99.90;;;;;;4992153;28;20190;-73
2022/02/06 11:00:00;;;;;;;4.67;0.77;;;8.60;99.90;;;;;;4991657;28;20473;-73
2022/02/06 11:02:56;;;;;;;2.50;0.70;;;8.90;99.90;;;;;;4991989;28;20435;-73
2022/02/06 11:05:30;;;;;;;2.60;1.17;;;9.00;99.90;;;;;;4991849;28;20560;-72
2022/02/06 11:08:01;;;;;;;2.00;1.00;;;9.00;99.90;;;;;;4991980;28;20463;-73
2022/02/06 11:10:36;;;;;;;2.30;0.80;;;8.90;99.90;;;;;;4991732;28;20429;-72
2022/02/06 11:13:05;;;;;;;2.90;1.20;;;8.70;99.90;;;;;;4991899;28;20506;-73
2022/02/06 11:15:38;;;;;;;1.83;1.30;;;8.60;99.90;;;;;;4991828;28;20418;-72
2022/02/06 11:18:06;;;;;;;3.57;0.90;;;8.40;99.90;;;;;;4992033;28;20972;-73
2022/02/06 11:20:32;;;;;;;2.00;1.00;;;8.40;99.90;;;;;;4991526;28;20880;-73
2022/02/06 11:23:02;;;;;;;1.90;0.90;;;8.50;99.90;;;;;;4991577;28;20505;-73
2022/02/06 11:25:32;;;;;;;3.37;0.97;;;8.50;99.90;;;;;;4991848;28;20423;-72
2022/02/06 11:27:59;;;;;;;1.20;0.80;;;8.40;99.90;;;;;;4991863;28;20471;-73
2022/02/06 11:30:24;;;;;;;2.10;0.70;;;8.40;99.90;;;;;;4993659;28;20758;-71
2022/02/06 11:32:50;;;;;;;1.13;0.83;;;8.30;99.90;;;;;;4995175;28;20459;-73
2022/02/06 11:35:21;;;;;;;2.93;0.80;;;8.20;99.90;;;;;;4995693;28;20176;-73
2022/02/06 11:44:38;;;;;;;4.40;1.03;;;8.00;99.90;;;;;;4935000;29;20871;-73
2022/02/06 11:47:19;;;;;;;4.67;0.83;;;7.90;99.90;;;;;;4935769;29;20414;-73
2022/02/06 11:49:47;;;;;;;2.93;1.20;;;7.90;99.90;;;;;;4982262;28;20451;-74
2022/02/06 11:52:14;;;;;;;2.30;0.80;;;7.90;99.90;;;;;;4995213;28;20431;-73
2022/02/06 11:54:56;;;;;;;2.37;0.97;;;7.90;99.90;;;;;;4994912;28;20421;-73
2022/02/06 11:57:26;;;;;;;1.80;0.90;;;7.90;99.90;;;;;;4995311;28;20439;-72
2022/02/06 12:00:14;;;;;;;1.97;0.60;;;7.90;99.90;;;;;;4995010;28;20463;-73
2022/02/06 12:02:43;;;;;;;3.13;0.90;;;7.90;99.90;;;;;;4994884;28;20439;-72
2022/02/06 12:05:27;;;;;;;2.30;0.60;;;8.00;99.90;;;;;;4995089;28;20777;-73
2022/02/06 12:07:52;;;;;;;1.80;0.70;;;8.00;99.90;;;;;;4995102;28;20435;-72
2022/02/06 12:10:19;;;;;;;2.00;0.80;;;8.10;99.90;;;;;;4994902;28;20494;-73
2022/02/06 12:12:47;;;;;;;2.17;0.70;;;8.20;99.90;;;;;;4994598;28;20198;-71
2022/02/06 12:15:32;;;;;;;1.77;0.70;;;8.20;99.90;;;;;;4995052;28;20507;-72
2022/02/06 12:18:12;;;;;;;1.77;0.60;;;8.20;99.90;;;;;;4994888;28;20416;-73
2022/02/06 12:20:53;;;;;;;1.20;0.60;;;8.20;99.90;;;;;;4994458;28;20541;-72
2022/02/06 12:23:55;;;;;;;1.00;0.53;;;8.30;99.90;;;;;;4994588;28;20425;-73
2022/02/06 12:26:32;;;;;;;1.60;1.00;;;8.40;99.90;;;;;;4953516;28;20506;-73
2022/02/06 12:29:02;;;;;;;1.57;0.60;;;8.30;99.90;;;;;;4994581;28;20922;-72
2022/02/06 12:31:32;;;;;;;0.50;0.50;;;8.40;99.90;;;;;;4994479;28;20457;-73
2022/02/06 12:39:27;;;;;;;3.53;0.60;;;8.50;99.90;;;;;;4994519;28;20438;-73
2022/02/06 12:41:55;;;;;;;0.70;0.53;;;8.50;99.90;;;;;;4993084;28;20447;-73
2022/02/06 12:44:24;;;;;;;1.20;0.57;;;8.50;99.90;;;;;;4994187;28;20414;-72
2022/02/06 12:46:50;;;;;;;1.17;0.77;;;8.50;99.90;;;;;;4994103;28;20424;-73
2022/02/06 12:49:20;;;;;;;1.63;0.60;;;8.50;99.90;;;;;;4994322;28;20503;-73
2022/02/06 12:51:46;;;;;;;0.70;0.60;;;8.50;99.90;;;;;;4994134;28;20440;-73
2022/02/06 12:54:17;;;;;;;0.90;0.60;;;8.30;99.90;;;;;;4994686;28;20448;-73
2022/02/06 12:56:43;;;;;;;3.77;1.27;;;8.30;99.90;;;;;;4994105;28;20183;-73
2022/02/06 12:59:10;;;;;;;0.60;0.50;;;8.20;99.90;;;;;;4994086;28;20492;-73
2022/02/06 13:01:39;;;;;;;3.33;0.60;;;8.10;99.90;;;;;;4994029;28;20439;-72
2022/02/06 13:04:09;;;;;;;2.50;0.60;;;8.10;99.90;;;;;;4994506;28;20423;-73
2022/02/06 13:06:36;;;;;;;8.17;1.07;;;8.10;99.90;;;;;;4993994;28;20948;-73
2022/02/06 13:09:11;;;;;;;0.73;0.60;;;8.10;99.90;;;;;;4994023;28;20597;-73
2022/02/06 13:11:50;;;;;;;2.10;0.50;;;8.10;99.90;;;;;;4993915;28;20972;-71
2022/02/06 13:14:33;;;;;;;4.50;0.67;;;8.00;99.90;;;;;;4993935;28;20443;-72
2022/02/06 13:17:17;;;;;;;0.50;0.50;;;7.90;99.90;;;;;;4994043;28;20847;-72
2022/02/06 13:19:55;;;;;;;1.47;0.60;;;7.80;99.90;;;;;;4993572;28;20460;-73
2022/02/06 13:33:01;;;;;;;2.57;0.70;;;7.50;99.90;;;;;;4993863;28;20453;-73
2022/02/06 13:37:57;;;;;;;2.20;0.60;;;7.40;99.90;;;;;;4993535;28;20416;-72
2022/02/06 13:40:28;;;;;;;3.57;0.60;;;7.40;99.90;;;;;;4993262;28;20935;-73
2022/02/06 13:43:13;;;;;;;0.47;0.47;;;7.40;99.90;;;;;;4993230;28;20421;-73
2022/02/06 13:45:41;;;;;;;0.60;0.60;;;7.30;99.90;;;;;;4993199;28;20422;-73
2022/02/06 13:48:08;;;;;;;0.90;0.40;;;7.30;99.90;;;;;;4993411;28;20408;-73
2022/02/06 13:50:39;;;;;;;0.67;0.67;;;7.20;99.90;;;;;;4992895;28;20421;-71
2022/02/06 13:53:15;;;;;;;1.00;0.50;;;7.10;99.90;;;;;;4992957;28;20415;-73
2022/02/06 13:55:57;;;;;;;0.50;0.50;;;7.00;99.90;;;;;;4993063;28;20434;-73
2022/02/06 13:58:24;;;;;;;0.70;0.50;;;7.00;99.90;;;;;;4993263;28;20436;-73
2022/02/06 14:01:02;;;;;;;3.83;0.63;;;6.90;99.90;;;;;;4992749;28;20462;-72
2022/02/06 14:03:47;;;;;;;1.20;0.50;;;6.90;99.90;;;;;;4993089;28;20483;-73
2022/02/06 14:06:17;;;;;;;0.80;0.40;;;6.80;99.90;;;;;;4993056;28;20416;-72
2022/02/06 14:09:10;;;;;;;0.77;0.50;;;6.70;99.90;;;;;;4992919;28;20612;-72
2022/02/06 14:11:36;;;;;;;0.70;0.70;;;6.60;99.90;;;;;;4992718;28;20403;-73
2022/02/06 14:14:22;;;;;;;2.40;0.60;;;6.60;99.90;;;;;;4992343;28;20477;-72
2022/02/06 14:16:49;;;;;;;0.60;0.60;;;6.50;99.90;;;;;;4992617;28;20252;-73
2022/02/06 14:19:32;;;;;;;2.93;0.40;;;6.40;99.90;;;;;;4992141;28;20461;-73
2022/02/06 14:21:57;;;;;;;1.80;0.50;;;6.40;99.90;;;;;;4992453;28;20438;-72
2022/02/06 14:24:23;;;;;;;0.57;0.50;;;6.40;99.90;;;;;;4992303;28;20923;-73
2022/02/06 14:27:36;;;;;;;0.80;0.50;;;6.40;99.90;;;;;;4992468;28;20179;-73
2022/02/06 14:30:09;;;;;;;0.50;0.50;;;6.30;99.90;;;;;;4985028;28;20608;-72
2022/02/06 14:32:35;;;;;;;2.87;0.50;;;6.30;99.90;;;;;;4992513;28;20540;-73
2022/02/06 14:35:07;;;;;;;6.07;0.70;;;6.20;99.90;;;;;;4991961;28;20451;-73
2022/02/06 14:37:54;;;;;;;0.80;0.50;;;6.20;99.90;;;;;;4992343;28;20413;-73
2022/02/06 14:43:11;;;;;;;1.40;0.40;;;6.10;99.90;;;;;;4992329;28;20426;-72
2022/02/06 14:45:57;;;;;;;0.43;0.40;;;6.10;99.90;;;;;;4991988;28;20424;-73
2022/02/06 14:48:25;;;;;;;0.53;0.43;;;6.00;99.90;;;;;;4992091;28;20491;-72
2022/02/06 14:50:52;;;;;;;0.50;0.50;;;6.00;99.90;;;;;;4991681;28;20485;-73
2022/02/06 14:53:20;;;;;;;2.30;0.50;;;6.00;99.90;;;;;;4992106;28;20508;-73
2022/02/06 14:55:47;;;;;;;1.00;0.40;;;5.90;99.90;;;;;;4991787;28;20814;-73
2022/02/06 14:58:13;;;;;;;0.80;0.40;;;5.90;99.90;;;;;;4992212;28;20420;-73
2022/02/06 15:00:39;;;;;;;0.97;0.40;;;5.90;99.90;;;;;;4991553;28;20464;-73
2022/02/06 15:03:09;;;;;;;0.70;0.40;;;5.80;99.90;;;;;;4991988;28;20421;-73
2022/02/06 15:05:35;;;;;;;2.20;0.67;;;5.80;99.90;;;;;;4989938;28;20426;-72
2022/02/06 15:08:02;;;;;;;0.87;0.67;;;5.80;99.90;;;;;;4991942;28;20408;-73
2022/02/06 15:10:28;;;;;;;0.43;0.43;;;5.70;99.90;;;;;;4991822;28;20486;-73
2022/02/06 15:12:54;;;;;;;0.40;0.40;;;5.70;99.90;;;;;;4991545;28;21148;-73
2022/02/06 15:15:20;;;;;;;0.83;0.40;;;5.60;99.90;;;;;;4991905;28;20204;-72
2022/02/06 15:17:49;;;;;;;2.10;0.50;;;5.70;99.90;;;;;;4991579;28;20423;-73
2022/02/06 15:20:15;;;;;;;3.00;0.60;;;5.60;99.90;;;;;;4991728;28;20461;-72
2022/02/06 15:22:41;;;;;;;0.50;0.40;;;5.60;99.90;;;;;;4991670;28;20448;-72
2022/02/06 15:25:06;;;;;;;1.00;0.40;;;5.60;99.90;;;;;;4991495;28;20546;-72
2022/02/06 15:27:32;;;;;;;0.80;0.43;;;5.50;99.90;;;;;;4991857;28;20183;-72
2022/02/06 15:29:57;;;;;;;1.07;0.50;;;5.50;99.90;;;;;;4991450;28;20420;-73
2022/02/06 15:32:25;;;;;;;0.47;0.47;;;5.50;99.90;;;;;;4991734;28;20719;-72
2022/02/06 15:34:50;;;;;;;0.43;0.43;;;5.50;99.90;;;;;;4991317;28;20170;-72
2022/02/06 15:37:17;;;;;;;1.63;0.40;;;5.50;99.90;;;;;;4991828;28;20424;-73
2022/02/06 15:39:43;;;;;;;0.53;0.40;;;5.40;99.90;;;;;;4991300;28;20195;-72
2022/02/06 15:42:16;;;;;;;0.40;0.40;;;5.50;99.90;;;;;;4991647;28;20804;-72
2022/02/06 15:44:44;;;;;;;3.13;0.50;;;5.40;99.90;;;;;;4991346;28;20382;-72
2022/02/06 15:47:10;;;;;;;1.20;0.40;;;5.40;99.90;;;;;;4991757;28;20407;-72
2022/02/06 15:49:36;;;;;;;0.50;0.50;;;5.40;99.90;;;;;;4991337;28;20527;-72
2022/02/06 15:52:06;;;;;;;1.47;0.40;;;5.40;99.90;;;;;;4991565;28;20460;-73
2022/02/06 15:54:32;;;;;;;0.80;0.40;;;5.40;99.90;;;;;;4991141;28;20458;-73
2022/02/06 15:56:57;;;;;;;0.60;0.60;;;5.40;99.90;;;;;;4991551;28;20452;-73
2022/02/06 15:59:23;;;;;;;1.00;0.50;;;5.40;99.90;;;;;;4991327;28;20250;-72
2022/02/06 16:01:50;;;;;;;1.37;0.90;;;5.40;99.90;;;;;;4989805;28;20666;-72
2022/02/06 16:04:16;;;;;;;0.60;0.60;;;5.40;99.90;;;;;;4991345;28;20382;-72
2022/02/06 16:06:42;;;;;;;1.57;0.50;;;5.40;99.90;;;;;;4991384;28;20462;-73
2022/02/06 16:09:08;;;;;;;4.70;3.40;;;5.40;99.90;;;;;;4991405;28;20403;-72
2022/02/06 16:11:34;;;;;;;1.00;0.50;;;5.40;99.90;;;;;;4991144;28;20543;-72
2022/02/06 16:14:01;;;;;;;0.50;0.50;;;5.40;99.90;;;;;;4991128;28;20518;-72
2022/02/06 16:16:29;;;;;;;1.13;0.80;;;5.40;99.90;;;;;;4993229;28;20454;-73
2022/02/06 16:18:55;;;;;;;0.50;0.40;;;5.40;99.90;;;;;;4994725;28;20419;-72
2022/02/06 16:21:21;;;;;;;1.13;0.50;;;5.40;99.90;;;;;;4994349;28;20447;-73
2022/02/06 16:23:46;;;;;;;0.50;0.40;;;5.40;99.90;;;;;;4994544;28;20389;-73
2022/02/06 16:26:12;;;;;;;0.63;0.50;;;5.40;99.90;;;;;;4994691;28;20177;-73
2022/02/06 16:28:37;;;;;;;0.90;0.70;;;5.50;99.90;;;;;;4994620;28;20213;-72
2022/02/06 16:31:03;;;;;;;2.83;1.80;;;5.50;99.90;;;;;;4994417;28;20219;-72
2022/02/06 16:33:29;;;;;;;1.43;0.90;;;5.50;99.90;;;;;;4994497;28;20228;-72
2022/02/06 16:35:55;;;;;;;0.50;0.50;;;5.50;99.90;;;;;;4994477;28;20267;-72
2022/02/06 16:38:21;;;;;;;0.50;0.50;;;5.50;99.90;;;;;;4994630;28;20621;-73
2022/02/06 16:40:46;;;;;;;1.77;0.60;;;5.50;99.90;;;;;;4993976;28;20207;-73
2022/02/06 16:43:12;;;;;;;0.73;0.60;;;5.60;99.90;;;;;;4994312;28;20173;-73
2022/02/06 16:45:37;;;;;;;0.60;0.60;;;5.60;99.90;;;;;;4994305;28;20177;-73
2022/02/06 16:48:03;;;;;;;0.57;0.57;;;5.60;99.90;;;;;;4994852;28;20177;-72
2022/02/06 16:50:29;;;;;;;0.80;0.80;;;5.60;99.90;;;;;;4994225;28;20244;-73
2022/02/06 16:52:54;;;;;;;1.13;0.60;;;5.60;99.90;;;;;;4994033;28;20193;-73
2022/02/06 16:55:20;;;;;;;0.53;0.53;;;5.60;99.90;;;;;;4994312;28;20651;-75
2022/02/06 16:57:45;;;;;;;1.10;0.60;;;5.60;99.90;;;;;;4994234;28;20191;-76
2022/02/06 17:00:11;;;;;;;1.40;1.30;;;5.70;99.90;;;;;;4994243;28;20639;-75
2022/02/06 17:02:38;;;;;;;1.47;0.50;;;5.60;99.90;;;;;;4994563;28;20193;-76
2022/02/06 17:05:04;;;;;;;0.63;0.63;;;5.60;99.90;;;;;;4994219;28;20483;-76
2022/02/06 17:07:30;;;;;;;0.87;0.60;;;5.70;99.90;;;;;;4994348;28;20474;-75
2022/02/06 17:09:55;;;;;;;0.97;0.57;;;5.60;99.90;;;;;;4993920;28;20500;-74
2022/02/06 17:12:21;;;;;;;0.40;0.40;;;5.70;99.90;;;;;;4994081;28;20201;-75
2022/02/06 17:14:47;;;;;;;0.40;0.40;;;5.70;99.90;;;;;;4993691;28;20185;-75
2022/02/06 17:17:12;;;;;;;0.53;0.50;;;5.70;99.90;;;;;;4994081;28;20227;-75
2022/02/06 17:19:38;;;;;;;0.50;0.50;;;5.70;99.90;;;;;;4993951;28;20619;-75
2022/02/06 17:22:04;;;;;;;0.70;0.60;;;5.70;99.90;;;;;;4993862;28;20210;-76
2022/02/06 17:24:31;;;;;;;0.47;0.40;;;5.60;99.90;;;;;;4993757;28;20182;-75
2022/02/06 17:26:57;;;;;;;0.40;0.40;;;5.70;99.90;;;;;;4992018;28;20265;-75
2022/02/06 17:29:23;;;;;;;2.10;0.50;;;5.70;99.90;;;;;;4993655;28;20428;-76
2022/02/06 17:31:49;;;;;;;0.50;0.50;;;5.70;99.90;;;;;;4993377;28;20788;-75
2022/02/06 17:34:15;;;;;;;0.50;0.47;;;5.70;99.90;;;;;;4993630;28;20183;-75
2022/02/06 17:36:43;;;;;;;0.60;0.60;;;5.70;99.90;;;;;;4993527;28;20177;-75
2022/02/06 17:39:09;;;;;;;0.83;0.83;;;5.70;99.90;;;;;;4993912;28;20809;-75
2022/02/06 17:41:34;;;;;;;0.77;0.77;;;5.70;99.90;;;;;;4993303;28;20446;-76
2022/02/06 17:44:01;;;;;;;0.50;0.50;;;5.70;99.90;;;;;;4993537;28;20210;-75
2022/02/06 17:46:32;;;;;;;2.77;0.83;;;5.80;99.90;;;;;;4993983;28;20495;-75
2022/02/06 17:48:58;;;;;;;0.50;0.50;;;5.80;99.90;;;;;;4994001;28;20189;-75
2022/02/06 17:51:25;;;;;;;0.50;0.50;;;5.80;99.90;;;;;;4993422;28;20504;-76
2022/02/06 17:53:55;;;;;;;0.63;0.57;;;5.80;99.90;;;;;;4993039;28;20410;-76
2022/02/06 17:56:21;;;;;;;0.40;0.40;;;5.80;99.90;;;;;;4993342;28;20400;-76
2022/02/06 17:58:47;;;;;;;0.50;0.50;;;5.80;99.90;;;;;;4993132;28;20406;-75
2022/02/06 18:01:12;;;;;;;0.50;0.50;;;5.80;99.90;;;;;;4991655;28;20511;-76
2022/02/06 18:03:38;;;;;;;0.50;0.40;;;5.90;99.90;;;;;;4993011;28;20232;-76
2022/02/06 18:06:05;;;;;;;1.63;0.77;;;5.80;99.90;;;;;;4992968;28;20177;-76
2022/02/06 18:08:33;;;;;;;2.20;0.73;;;5.80;99.90;;;;;;4993030;28;20428;-75
2022/02/06 18:10:59;;;;;;;0.70;0.70;;;5.80;99.90;;;;;;4992639;28;20435;-76
2022/02/06 18:13:25;;;;;;;2.83;0.50;;;5.90;99.90;;;;;;4992897;28;20997;-76
2022/02/06 18:15:52;;;;;;;0.50;0.43;;;5.90;99.90;;;;;;4992637;28;20229;-76
2022/02/06 18:18:17;;;;;;;2.20;0.80;;;6.00;99.90;;;;;;4992991;28;20486;-76
2022/02/06 18:20:43;;;;;;;1.27;0.50;;;6.00;99.90;;;;;;4992623;28;20866;-75
2022/02/06 18:23:09;;;;;;;0.40;0.40;;;6.00;99.90;;;;;;4992682;28;20178;-75
2022/02/06 18:25:36;;;;;;;1.10;0.50;;;6.00;99.90;;;;;;4992881;28;20534;-77
2022/02/06 18:28:02;;;;;;;1.20;0.50;;;6.00;99.90;;;;;;4992802;28;20193;-75
2022/02/06 18:30:28;;;;;;;0.53;0.50;;;6.10;99.90;;;;;;4992759;28;20417;-75